Sunny Side, Texas
Current Conditions -  °F | °C
As of 8:35 PM on Wednesday 17 Dec 2014 (Local Time) from KTME Reporting Station
Overcast Overcast  
Wind Chill: 15°   Ceiling: 5500
Heat Index: 15°   Visibility: 10mi
Dew Point: 13°   Wind: 10mph
Humidity: 88%   Direction: 100°E
Pressure: 30.11"   Gusts: NA
Location:  29.8217°N, 95.9894°W
Report Text: KTME 180235Z AUTO 10009KT 10SM FEW029 SCT034 OVC055 15/13 A3011 RMK AO2
Loading
Personal Weather Stations






























Interactive Weather Map New forecast layout! Learn more

10-Day Weather Forecast

Advertisements
Track Severe Weather on mobile